Time;durP1;ratioP1;P1;durP2;ratioP2;P2;SDS_P1;SDS_P2;PMS_P1;PMS_P2;Temp;Humidity;BMP_temperature;BMP_pressure;BME280_temperature;BME280_humidity;BME280_pressure;Samples;Min_cycle;Max_cycle;Signal;HPM_P1;HPM_P2
2022/06/21 00:00:20;;;;;;;13.50;5.72;;;13.10;99.90;;;;;;5051936;28;20053;-71
2022/06/21 00:02:47;;;;;;;15.25;5.40;;;13.10;99.90;;;;;;5052280;28;20041;-71
2022/06/21 00:05:34;;;;;;;16.05;6.13;;;13.00;99.90;;;;;;5052271;28;20052;-71
2022/06/21 00:08:03;;;;;;;15.57;6.05;;;13.00;99.90;;;;;;5052664;28;20460;-71
2022/06/21 00:10:34;;;;;;;12.32;5.47;;;12.90;99.90;;;;;;5051652;28;20044;-71
2022/06/21 00:13:06;;;;;;;13.75;6.53;;;12.90;99.90;;;;;;5051970;28;20124;-71
2022/06/21 00:15:33;;;;;;;14.20;6.00;;;12.80;99.90;;;;;;5052961;28;20045;-71
2022/06/21 00:18:00;;;;;;;12.93;5.40;;;12.80;99.90;;;;;;5052136;28;20049;-71
2022/06/21 00:20:27;;;;;;;11.60;5.38;;;12.70;99.90;;;;;;5053025;28;20044;-70
2022/06/21 00:22:54;;;;;;;12.38;6.40;;;12.70;99.90;;;;;;5052068;28;20055;-71
2022/06/21 00:25:23;;;;;;;10.60;5.63;;;12.70;99.90;;;;;;5052838;28;20041;-71
2022/06/21 00:27:51;;;;;;;11.55;5.93;;;12.60;99.90;;;;;;5035671;28;20048;-71
2022/06/21 00:30:18;;;;;;;14.77;6.22;;;12.60;99.90;;;;;;5052040;28;20045;-71
2022/06/21 00:32:45;;;;;;;10.93;5.25;;;12.60;99.90;;;;;;5051630;28;20049;-71
2022/06/21 00:35:16;;;;;;;10.63;5.47;;;12.60;99.90;;;;;;5052322;28;20049;-71
2022/06/21 00:37:43;;;;;;;11.98;6.07;;;12.50;99.90;;;;;;5036442;28;20049;-71
2022/06/21 00:40:20;;;;;;;18.40;6.13;;;12.50;99.90;;;;;;5052649;28;20130;-71
2022/06/21 00:43:02;;;;;;;9.30;5.70;;;12.60;99.90;;;;;;5051995;28;20486;-71
2022/06/21 00:45:35;;;;;;;13.75;6.70;;;12.60;99.90;;;;;;5051894;28;20037;-71
2022/06/21 00:48:15;;;;;;;14.00;6.43;;;12.60;99.90;;;;;;5051626;28;20060;-71
2022/06/21 00:50:53;;;;;;;13.38;6.45;;;12.60;99.90;;;;;;5051630;28;20041;-71
2022/06/21 00:53:25;;;;;;;13.13;5.85;;;12.60;99.90;;;;;;5052621;28;20099;-71
2022/06/21 00:56:15;;;;;;;10.88;6.82;;;12.60;99.90;;;;;;5051764;28;20049;-71
2022/06/21 00:58:41;;;;;;;12.50;6.30;;;12.60;99.90;;;;;;5053416;28;20045;-71
2022/06/21 01:01:18;;;;;;;12.18;5.78;;;12.50;99.90;;;;;;5052665;28;20049;-71
2022/06/21 01:03:48;;;;;;;13.25;5.97;;;12.50;99.90;;;;;;5052639;28;20068;-71
2022/06/21 01:06:20;;;;;;;18.83;6.85;;;12.40;99.90;;;;;;5052195;28;20045;-70
2022/06/21 01:08:58;;;;;;;15.18;6.75;;;12.30;99.90;;;;;;5052178;28;20045;-71
2022/06/21 01:11:39;;;;;;;14.10;6.30;;;12.20;99.90;;;;;;5052250;28;20498;-71
2022/06/21 01:14:08;;;;;;;12.10;6.28;;;12.10;99.90;;;;;;5051383;28;20047;-70
2022/06/21 01:16:34;;;;;;;12.95;6.78;;;12.10;99.90;;;;;;5052428;28;20128;-70
2022/06/21 01:19:02;;;;;;;12.13;6.55;;;12.10;99.90;;;;;;5051912;28;20114;-71
2022/06/21 01:21:29;;;;;;;17.35;7.15;;;12.00;99.90;;;;;;5052753;28;20045;-70
2022/06/21 01:24:08;;;;;;;18.38;6.65;;;11.90;99.90;;;;;;5055235;28;20381;-71
2022/06/21 01:26:57;;;;;;;13.95;6.15;;;11.90;99.90;;;;;;5056183;28;20388;-71
2022/06/21 01:29:27;;;;;;;12.38;6.30;;;11.80;99.90;;;;;;5039587;28;20378;-71
2022/06/21 01:31:58;;;;;;;;;;;11.80;99.90;;;;;;5056023;28;20060;-70
2022/06/21 01:34:26;;;;;;;12.15;5.97;;;11.80;99.90;;;;;;5055999;28;19916;-71
2022/06/21 01:37:14;;;;;;;11.88;5.65;;;11.70;99.90;;;;;;5055887;28;20132;-71
2022/06/21 01:40:00;;;;;;;11.48;5.93;;;11.60;99.90;;;;;;5041597;28;20488;-71
2022/06/21 01:42:36;;;;;;;12.13;5.53;;;11.60;99.90;;;;;;5038282;28;20518;-71
2022/06/21 01:45:07;;;;;;;13.55;7.10;;;11.50;99.90;;;;;;5038891;28;20045;-71
2022/06/21 01:48:15;;;;;;;15.15;6.05;;;11.50;99.90;;;;;;5055210;28;20045;-71
2022/06/21 01:50:43;;;;;;;9.40;6.57;;;11.50;99.90;;;;;;5056713;28;20049;-70
2022/06/21 01:53:10;;;;;;;10.60;5.85;;;11.40;99.90;;;;;;5054460;28;20128;-70
2022/06/21 01:55:46;;;;;;;14.45;6.82;;;11.40;99.90;;;;;;5054308;28;20045;-71
2022/06/21 01:58:16;;;;;;;15.05;6.78;;;11.30;99.90;;;;;;5054783;28;20103;-71
2022/06/21 02:00:46;;;;;;;14.10;6.55;;;11.20;99.90;;;;;;5038031;28;20053;-70
2022/06/21 02:03:17;;;;;;;12.77;7.15;;;11.20;99.90;;;;;;5038587;28;20056;-70
2022/06/21 02:05:47;;;;;;;10.43;6.35;;;11.20;99.90;;;;;;5038469;28;20041;-70
2022/06/21 02:08:15;;;;;;;11.20;6.72;;;11.10;99.90;;;;;;5038865;28;20044;-71
2022/06/21 02:10:48;;;;;;;11.82;6.78;;;11.10;99.90;;;;;;5037820;28;20045;-70
2022/06/21 02:13:16;;;;;;;12.60;6.70;;;11.00;99.90;;;;;;5055102;28;20045;-70
2022/06/21 02:15:49;;;;;;;9.43;6.32;;;11.00;99.90;;;;;;5054816;28;20056;-71
2022/06/21 02:18:16;;;;;;;12.88;6.07;;;10.90;99.90;;;;;;5037855;28;20098;-70
2022/06/21 02:21:03;;;;;;;13.38;6.82;;;10.90;99.90;;;;;;5053882;28;20051;-70
2022/06/21 02:23:30;;;;;;;14.85;7.07;;;10.90;99.90;;;;;;5055041;28;20358;-70
2022/06/21 02:25:57;;;;;;;11.93;7.63;;;10.90;99.90;;;;;;5055226;28;20099;-70
2022/06/21 02:28:25;;;;;;;18.20;6.97;;;10.90;99.90;;;;;;5053834;28;20041;-70
2022/06/21 02:30:53;;;;;;;12.35;6.47;;;10.90;99.90;;;;;;5053669;28;20051;-71
2022/06/21 02:33:27;;;;;;;12.77;6.40;;;10.80;99.90;;;;;;5053130;28;20096;-71
2022/06/21 02:36:01;;;;;;;12.35;6.35;;;10.70;99.90;;;;;;5054611;28;20041;-61
2022/06/21 02:38:43;;;;;;;44.08;29.52;;;10.70;99.90;;;;;;5053623;28;20048;-72
2022/06/21 02:41:18;;;;;;;16.65;8.95;;;10.70;99.90;;;;;;5054842;28;20041;-74
2022/06/21 02:43:54;;;;;;;15.40;7.93;;;10.80;99.90;;;;;;5053616;28;20047;-70
2022/06/21 02:46:23;;;;;;;20.98;8.73;;;10.80;99.90;;;;;;5054250;28;20045;-70
2022/06/21 02:49:09;;;;;;;13.52;7.47;;;10.70;99.90;;;;;;5053589;28;20037;-70
2022/06/21 02:51:39;;;;;;;11.68;6.18;;;10.70;99.90;;;;;;5039349;28;20059;-69
2022/06/21 02:54:10;;;;;;;12.82;6.97;;;10.70;99.90;;;;;;5054321;28;20041;-70
2022/06/21 02:56:44;;;;;;;12.77;7.57;;;10.70;99.90;;;;;;5054343;28;20045;-70
2022/06/21 02:59:11;;;;;;;11.85;5.63;;;10.60;99.90;;;;;;5053889;28;20048;-70
2022/06/21 03:01:41;;;;;;;14.48;6.32;;;10.50;99.90;;;;;;5052960;28;20057;-70
2022/06/21 03:04:30;;;;;;;12.98;5.70;;;10.50;99.90;;;;;;5054087;28;20045;-71
2022/06/21 03:06:57;;;;;;;9.55;5.93;;;10.50;99.90;;;;;;5053151;28;20049;-70
2022/06/21 03:09:24;;;;;;;11.18;6.57;;;10.40;99.90;;;;;;5054183;28;20055;-70
2022/06/21 03:11:54;;;;;;;12.05;6.15;;;10.40;99.90;;;;;;5052912;28;20076;-70
2022/06/21 03:14:22;;;;;;;15.38;7.25;;;10.40;99.90;;;;;;5052844;28;20045;-69
2022/06/21 03:16:49;;;;;;;13.77;6.97;;;10.30;99.90;;;;;;5053116;28;20388;-70
2022/06/21 03:19:21;;;;;;;13.93;6.60;;;10.30;99.90;;;;;;5037412;28;20045;-70
2022/06/21 03:21:49;;;;;;;13.02;5.97;;;10.40;99.90;;;;;;5053693;28;20053;-70
2022/06/21 03:24:19;;;;;;;15.48;7.35;;;10.30;99.90;;;;;;5052733;28;20071;-70
2022/06/21 03:27:07;;;;;;;;;;;10.30;99.90;;;;;;5036857;28;20431;-70
2022/06/21 03:29:34;;;;;;;12.60;6.30;;;10.30;99.90;;;;;;5086779;28;20336;-70
2022/06/21 03:32:01;;;;;;;9.73;6.85;;;10.20;99.90;;;;;;5052862;28;20044;-70
2022/06/21 03:34:31;;;;;;;14.23;7.97;;;10.20;99.90;;;;;;5053747;28;20416;-70
2022/06/21 03:36:59;;;;;;;13.13;6.63;;;10.20;99.90;;;;;;5054700;28;20048;-70
2022/06/21 03:42:14;;;;;;;16.67;6.88;;;10.20;99.90;;;;;;5053617;28;20040;-70
2022/06/21 03:44:45;;;;;;;10.13;5.87;;;10.10;99.90;;;;;;5052274;28;20044;-70
2022/06/21 03:47:25;;;;;;;12.90;6.90;;;10.10;99.90;;;;;;5052561;28;20041;-70
2022/06/21 03:49:58;;;;;;;14.02;6.53;;;10.10;99.90;;;;;;5052881;28;20380;-70
2022/06/21 03:52:41;;;;;;;14.02;6.88;;;10.00;99.90;;;;;;5036986;28;20049;-71
2022/06/21 03:55:27;;;;;;;12.27;6.55;;;10.00;99.90;;;;;;5053571;28;20083;-70
2022/06/21 03:58:14;;;;;;;14.98;6.72;;;10.00;99.90;;;;;;5052610;28;20041;-70
2022/06/21 04:00:51;;;;;;;12.43;6.55;;;10.00;99.90;;;;;;5053618;28;20094;-70
2022/06/21 04:03:37;;;;;;;11.30;6.15;;;10.10;99.90;;;;;;5053377;28;20049;-70
2022/06/21 04:06:11;;;;;;;12.35;6.07;;;10.10;99.90;;;;;;5037515;28;20072;-70
2022/06/21 04:08:37;;;;;;;13.73;6.18;;;10.10;99.90;;;;;;5053219;28;20044;-70
2022/06/21 04:11:19;;;;;;;9.25;6.05;;;10.10;99.90;;;;;;5052340;28;20041;-70
2022/06/21 04:14:07;;;;;;;13.63;6.55;;;10.10;99.90;;;;;;5052928;28;20044;-70
2022/06/21 04:17:08;;;;;;;7.57;5.35;;;10.10;99.90;;;;;;5052381;28;20392;-70
2022/06/21 04:19:58;;;;;;;7.28;4.85;;;10.10;99.90;;;;;;5049386;28;20049;-70
2022/06/21 04:22:39;;;;;;;8.90;6.15;;;10.10;99.90;;;;;;5039270;28;20469;-70
2022/06/21 04:25:10;;;;;;;9.43;5.35;;;10.10;99.90;;;;;;5052611;28;20045;-70
2022/06/21 04:27:48;;;;;;;12.35;6.22;;;10.20;99.90;;;;;;5035962;28;20068;-71
2022/06/21 04:30:23;;;;;;;11.60;5.93;;;10.20;99.90;;;;;;5053569;28;20465;-70
2022/06/21 04:33:04;;;;;;;12.00;5.55;;;10.20;99.90;;;;;;5052201;28;20629;-70
2022/06/21 04:35:33;;;;;;;10.93;5.70;;;10.20;99.90;;;;;;5052418;28;20045;-70
2022/06/21 04:38:07;;;;;;;11.23;5.50;;;10.30;99.90;;;;;;5052219;28;20043;-70
2022/06/21 04:40:46;;;;;;;8.23;5.35;;;10.40;99.90;;;;;;5051759;28;20049;-70
2022/06/21 04:43:39;;;;;;;10.57;5.07;;;10.70;99.90;;;;;;5035223;28;20055;-70
2022/06/21 04:46:12;;;;;;;10.95;5.25;;;11.10;99.90;;;;;;5052689;28;20408;-70
2022/06/21 04:49:01;;;;;;;9.05;4.90;;;11.50;99.90;;;;;;5051802;28;20052;-70
2022/06/21 04:51:32;;;;;;;9.52;5.22;;;11.90;99.90;;;;;;5053369;28;20049;-70
2022/06/21 04:54:27;;;;;;;11.80;5.25;;;12.50;99.90;;;;;;5053794;28;20041;-70
2022/06/21 04:57:14;;;;;;;11.30;6.35;;;13.00;99.90;;;;;;5053537;28;20053;-70
2022/06/21 04:59:42;;;;;;;7.93;4.88;;;13.70;99.90;;;;;;5055396;28;20043;-70
2022/06/21 05:02:17;;;;;;;11.87;5.23;;;14.30;99.90;;;;;;5039819;28;20042;-70
2022/06/21 05:04:44;;;;;;;8.57;4.95;;;15.00;99.90;;;;;;5055195;28;20132;-70
2022/06/21 05:07:13;;;;;;;9.30;5.30;;;15.40;99.90;;;;;;5055813;28;20091;-71
2022/06/21 05:09:40;;;;;;;;;;;15.80;99.90;;;;;;5055664;28;20120;-70
2022/06/21 05:12:14;;;;;;;10.02;4.05;;;16.00;99.90;;;;;;5056457;28;20372;-70
2022/06/21 05:14:44;;;;;;;8.15;4.80;;;16.20;99.90;;;;;;5055304;28;20037;-71
2022/06/21 05:17:13;;;;;;;10.25;5.50;;;16.30;99.90;;;;;;5055975;28;20052;-71
2022/06/21 05:19:43;;;;;;;10.13;4.57;;;16.20;99.90;;;;;;5055770;28;20041;-70
2022/06/21 05:22:16;;;;;;;9.50;4.93;;;16.20;99.90;;;;;;5055456;28;20056;-71
2022/06/21 05:24:44;;;;;;;11.02;5.65;;;16.50;99.90;;;;;;5056607;28;20064;-70
2022/06/21 05:27:27;;;;;;;10.65;4.90;;;16.90;99.90;;;;;;5038383;28;20049;-70
2022/06/21 05:30:08;;;;;;;13.40;6.18;;;17.20;99.90;;;;;;5055245;28;20045;-71
2022/06/21 05:32:45;;;;;;;12.20;5.28;;;17.20;99.90;;;;;;5055935;28;20047;-71
2022/06/21 05:35:20;;;;;;;10.98;6.20;;;17.20;99.90;;;;;;5054774;28;20132;-70
2022/06/21 05:38:00;;;;;;;12.30;5.80;;;17.00;99.90;;;;;;5055182;28;20464;-70
2022/06/21 05:40:45;;;;;;;13.98;5.75;;;17.00;99.90;;;;;;5054752;28;20045;-70
2022/06/21 05:43:34;;;;;;;13.40;5.40;;;16.90;99.90;;;;;;5055804;28;20049;-71
2022/06/21 05:46:03;;;;;;;;;;;16.90;99.90;;;;;;5038484;28;20045;-70
2022/06/21 05:48:33;;;;;;;14.63;6.25;;;16.90;99.90;;;;;;5087678;28;19930;-70
2022/06/21 05:51:01;;;;;;;12.25;6.50;;;16.60;99.90;;;;;;5038052;28;20055;-71
2022/06/21 05:53:33;;;;;;;17.83;9.95;;;16.50;99.90;;;;;;5055846;28;20037;-69
2022/06/21 05:56:09;;;;;;;9.48;5.07;;;16.40;99.90;;;;;;5054437;28;20546;-73
2022/06/21 05:58:37;;;;;;;11.80;5.50;;;16.40;99.90;;;;;;5055474;28;20353;-73
2022/06/21 06:01:12;;;;;;;10.45;5.38;;;16.30;99.90;;;;;;5054324;28;20056;-70
2022/06/21 06:04:20;;;;;;;11.63;5.53;;;16.10;99.90;;;;;;5055351;28;20041;-70
2022/06/21 06:06:48;;;;;;;10.47;5.47;;;16.00;99.90;;;;;;5027770;28;20045;-68
2022/06/21 06:09:19;;;;;;;111.63;76.85;;;16.00;99.90;;;;;;5053011;28;20811;-65
2022/06/21 06:12:02;;;;;;;67.85;57.42;;;16.00;99.90;;;;;;5054114;28;20051;-67
2022/06/21 06:14:37;;;;;;;18.27;13.88;;;16.10;99.90;;;;;;5055240;28;20037;-67
2022/06/21 06:17:21;;;;;;;11.70;6.57;;;16.10;99.90;;;;;;5072086;28;20373;-67
2022/06/21 06:19:52;;;;;;;9.75;5.65;;;16.10;99.90;;;;;;5055240;28;20052;-67
2022/06/21 06:22:40;;;;;;;9.85;5.57;;;16.10;99.90;;;;;;5054220;28;20056;-67
2022/06/21 06:25:20;;;;;;;9.88;5.53;;;16.00;99.90;;;;;;5055152;28;20045;-64
2022/06/21 06:27:59;;;;;;;11.75;4.93;;;16.00;99.90;;;;;;5054866;28;20049;-64
2022/06/21 06:30:58;;;;;;;10.50;4.85;;;16.00;99.90;;;;;;5054983;28;20041;-64
2022/06/21 06:33:37;;;;;;;9.40;4.05;;;16.00;99.90;;;;;;5051882;28;20507;-64
2022/06/21 06:36:11;;;;;;;18.42;5.65;;;15.90;99.90;;;;;;5054468;28;20476;-64
2022/06/21 06:38:38;;;;;;;8.07;3.80;;;16.00;99.90;;;;;;5053434;28;20159;-64
2022/06/21 06:41:08;;;;;;;11.20;4.20;;;16.00;99.90;;;;;;5053244;28;20053;-65
2022/06/21 06:43:40;;;;;;;9.35;3.53;;;16.30;99.90;;;;;;5054087;28;20044;-64
2022/06/21 06:46:08;;;;;;;7.80;3.13;;;16.60;99.90;;;;;;5054417;28;20178;-64
2022/06/21 06:48:36;;;;;;;9.50;3.80;;;16.70;99.90;;;;;;5053406;28;20036;-64
2022/06/21 06:51:15;;;;;;;5.68;3.33;;;16.80;99.90;;;;;;5054116;28;20348;-64
2022/06/21 06:53:50;;;;;;;7.45;3.28;;;16.90;99.90;;;;;;5054574;28;20396;-64
2022/06/21 06:56:24;;;;;;;13.05;3.47;;;16.90;99.90;;;;;;5055078;28;20438;-63
2022/06/21 06:59:05;;;;;;;6.97;4.53;;;16.90;99.90;;;;;;5053651;28;20045;-64
2022/06/21 07:02:01;;;;;;;11.77;5.78;;;16.90;99.90;;;;;;5037856;28;20045;-64
2022/06/21 07:04:32;;;;;;;7.20;4.72;;;16.90;99.90;;;;;;5053423;28;20095;-64
2022/06/21 07:07:09;;;;;;;10.23;3.70;;;17.00;99.90;;;;;;5053741;28;20045;-63
2022/06/21 07:09:48;;;;;;;9.18;3.03;;;17.10;99.90;;;;;;5054090;28;20045;-64
2022/06/21 07:12:25;;;;;;;12.43;3.55;;;17.20;99.90;;;;;;5053835;28;20040;-64
2022/06/21 07:14:53;;;;;;;13.02;3.85;;;17.20;99.90;;;;;;5052939;28;20053;-64
2022/06/21 07:17:49;;;;;;;6.43;3.38;;;17.30;99.90;;;;;;5053220;28;20380;-64
2022/06/21 07:20:29;;;;;;;8.80;3.00;;;17.40;99.90;;;;;;5053378;28;20049;-64
2022/06/21 07:22:56;;;;;;;5.95;3.10;;;17.60;99.90;;;;;;5052870;28;20449;-64
2022/06/21 07:25:36;;;;;;;7.82;3.10;;;17.70;99.90;;;;;;5054659;28;20515;-65
2022/06/21 07:28:29;;;;;;;8.05;3.00;;;17.80;99.90;;;;;;5052898;28;20056;-64
2022/06/21 07:30:58;;;;;;;7.75;2.88;;;17.90;99.90;;;;;;5053593;28;20051;-64
2022/06/21 07:33:30;;;;;;;8.02;3.40;;;18.10;99.90;;;;;;5052835;28;20091;-67
2022/06/21 07:36:05;;;;;;;6.03;2.65;;;18.10;99.90;;;;;;5052658;28;20052;-64
2022/06/21 07:38:42;;;;;;;4.78;2.42;;;18.10;99.90;;;;;;5052759;28;20473;-65
2022/06/21 07:41:14;;;;;;;6.70;2.40;;;18.20;99.90;;;;;;5052531;28;20043;-63
2022/06/21 07:43:45;;;;;;;6.45;2.55;;;18.30;97.60;;;;;;5053747;28;20476;-65
2022/06/21 07:46:15;;;;;;;8.65;3.95;;;18.20;96.50;;;;;;5052227;28;20041;-66
2022/06/21 07:48:55;;;;;;;5.18;2.58;;;18.20;96.20;;;;;;5052961;28;20094;-66
2022/06/21 07:51:28;;;;;;;5.45;2.58;;;18.20;96.00;;;;;;5052211;28;20045;-65
2022/06/21 07:54:01;;;;;;;6.18;2.30;;;18.40;98.00;;;;;;5053420;28;20044;-70
2022/06/21 07:56:33;;;;;;;4.90;2.25;;;18.40;93.70;;;;;;5053261;28;20065;-67
2022/06/21 07:59:12;;;;;;;8.88;4.78;;;18.20;94.30;;;;;;5053241;28;20045;-69
2022/06/21 08:07:51;;;;;;;4.90;2.40;;;18.20;97.10;;;;;;5053193;28;20048;-70
2022/06/21 08:10:35;;;;;;;6.78;2.75;;;18.30;97.40;;;;;;5052267;28;20052;-68
2022/06/21 08:13:02;;;;;;;8.70;2.63;;;18.40;95.90;;;;;;5053164;28;20396;-71
2022/06/21 08:15:32;;;;;;;7.88;3.20;;;18.40;95.80;;;;;;5053528;28;20045;-66
2022/06/21 08:18:30;;;;;;;8.13;3.00;;;18.40;96.50;;;;;;5052160;28;20049;-64
2022/06/21 08:21:50;;;;;;;4.57;2.22;;;18.20;95.80;;;;;;5028358;28;20055;-64
2022/06/21 08:24:42;;;;;;;5.63;2.25;;;18.20;96.20;;;;;;5041075;28;20048;-63
2022/06/21 08:27:32;;;;;;;6.30;3.15;;;18.50;96.60;;;;;;5042785;28;20503;-63
2022/06/21 08:30:06;;;;;;;;;;;18.50;94.20;;;;;;5053428;28;20036;-63
2022/06/21 08:32:35;;;;;;;5.85;2.75;;;18.50;94.90;;;;;;5056152;28;20020;-66
2022/06/21 08:35:24;;;;;;;9.25;3.45;;;18.60;96.30;;;;;;5057206;28;20101;-62
2022/06/21 08:38:12;;;;;;;7.68;3.13;;;18.80;96.40;;;;;;5057465;28;20045;-64
2022/06/21 08:40:45;;;;;;;5.22;2.75;;;19.00;93.80;;;;;;5055866;28;20072;-63
2022/06/21 08:43:33;;;;;;;6.65;2.88;;;19.00;94.40;;;;;;5057222;28;20051;-63
2022/06/21 08:46:19;;;;;;;8.55;3.28;;;18.90;93.20;;;;;;5055751;28;20396;-61
2022/06/21 08:49:04;;;;;;;9.15;3.47;;;19.10;93.80;;;;;;5057915;28;20094;-65
2022/06/21 08:51:59;;;;;;;9.75;2.58;;;19.40;92.30;;;;;;5056830;28;20468;-65
2022/06/21 08:54:47;;;;;;;6.15;3.08;;;19.50;93.50;;;;;;5057981;28;20056;-64
2022/06/21 08:57:21;;;;;;;4.63;2.60;;;19.60;92.80;;;;;;5056334;28;20396;-62
2022/06/21 09:00:12;;;;;;;9.18;3.20;;;19.70;92.90;;;;;;5056485;28;20567;-64
2022/06/21 09:02:51;;;;;;;8.97;3.13;;;19.80;90.50;;;;;;5057097;28;20452;-63
2022/06/21 09:05:41;;;;;;;7.28;3.30;;;19.80;93.90;;;;;;5055575;28;20157;-63
2022/06/21 09:08:21;;;;;;;9.13;3.45;;;19.80;92.40;;;;;;5055591;28;20041;-63
2022/06/21 09:11:19;;;;;;;5.97;3.17;;;19.90;91.60;;;;;;5056637;28;20041;-61
2022/06/21 09:14:01;;;;;;;7.05;3.33;;;20.20;91.90;;;;;;5055632;28;20475;-61
2022/06/21 09:16:55;;;;;;;8.10;4.43;;;20.00;92.10;;;;;;5056325;28;20048;-64
2022/06/21 09:19:47;;;;;;;8.68;3.83;;;19.90;92.70;;;;;;5055261;28;20045;-64
2022/06/21 09:22:46;;;;;;;8.38;3.95;;;19.90;94.20;;;;;;5055880;28;20457;-61
2022/06/21 09:25:31;;;;;;;;;;;19.80;94.00;;;;;;5055772;28;20132;-62
2022/06/21 09:28:07;;;;;;;9.98;6.03;;;19.70;95.90;;;;;;5055967;28;19924;-63
2022/06/21 09:30:43;;;;;;;19.73;5.82;;;19.70;95.00;;;;;;5055099;28;20045;-62
2022/06/21 09:33:31;;;;;;;8.77;3.30;;;19.90;94.80;;;;;;5056077;28;20132;-61
2022/06/21 09:35:58;;;;;;;10.25;3.65;;;20.20;94.30;;;;;;5054930;28;20075;-62
2022/06/21 09:38:28;;;;;;;9.20;3.38;;;19.90;91.90;;;;;;5055876;28;20135;-61
2022/06/21 09:41:24;;;;;;;7.68;2.90;;;20.10;90.80;;;;;;5054829;28;20051;-64
2022/06/21 09:44:04;;;;;;;6.18;3.20;;;20.20;92.30;;;;;;5046857;28;20053;-63
2022/06/21 09:46:40;;;;;;;7.28;3.78;;;20.40;92.30;;;;;;5055652;28;20389;-65
2022/06/21 09:49:33;;;;;;;6.72;3.42;;;20.40;92.20;;;;;;5055017;28;20045;-63
2022/06/21 09:52:21;;;;;;;8.45;3.35;;;20.50;90.40;;;;;;5055479;28;20127;-64
2022/06/21 09:55:20;;;;;;;8.02;3.13;;;20.50;90.70;;;;;;5056374;28;20408;-63
2022/06/21 09:58:28;;;;;;;9.15;3.55;;;20.60;90.00;;;;;;5054484;28;20055;-62
2022/06/21 10:01:33;;;;;;;5.75;2.38;;;20.80;89.80;;;;;;5055404;28;20087;-64
2022/06/21 10:04:28;;;;;;;8.55;3.38;;;20.80;81.60;;;;;;5033229;28;20037;-66
2022/06/21 10:07:04;;;;;;;4.45;2.42;;;20.90;85.00;;;;;;5054337;28;20041;-65
2022/06/21 10:09:57;;;;;;;10.43;3.25;;;21.00;83.30;;;;;;5055194;28;20049;-66
2022/06/21 10:12:36;;;;;;;8.02;3.33;;;21.00;82.70;;;;;;5055015;28;20056;-67
2022/06/21 10:15:09;;;;;;;;;;;20.90;81.70;;;;;;5056242;28;20076;-66
2022/06/21 10:18:07;;;;;;;9.73;2.85;;;20.80;78.70;;;;;;5087418;28;19927;-68
2022/06/21 10:21:24;;;;;;;7.25;2.63;;;20.90;77.50;;;;;;5055108;28;20047;-66
2022/06/21 10:24:10;;;;;;;6.07;2.10;;;20.90;78.30;;;;;;5046034;28;20063;-70
2022/06/21 10:26:55;;;;;;;7.10;3.58;;;21.10;77.90;;;;;;5055949;28;20084;-69
2022/06/21 10:29:43;;;;;;;8.52;3.33;;;21.30;78.00;;;;;;5055316;28;20049;-66
2022/06/21 10:32:21;;;;;;;5.43;2.80;;;21.50;78.90;;;;;;5055069;28;20041;-65
2022/06/21 10:35:13;;;;;;;8.32;2.50;;;21.50;76.10;;;;;;5053721;28;20095;-68
2022/06/21 10:37:56;;;;;;;7.95;2.70;;;21.60;78.90;;;;;;5036162;28;20041;-68
2022/06/21 10:40:51;;;;;;;7.07;3.20;;;21.70;79.80;;;;;;5055562;28;20376;-68
2022/06/21 10:43:33;;;;;;;8.25;3.00;;;21.70;77.40;;;;;;5038153;28;20074;-66
2022/06/21 10:46:04;;;;;;;6.53;2.90;;;21.50;76.10;;;;;;5055216;28;20071;-65
2022/06/21 10:48:42;;;;;;;9.65;2.63;;;21.40;76.30;;;;;;5054264;28;20044;-65
2022/06/21 10:51:14;;;;;;;6.20;2.53;;;21.50;77.00;;;;;;5053415;28;20077;-67
2022/06/21 10:53:59;;;;;;;9.68;3.58;;;21.40;77.40;;;;;;5054062;28;20045;-63
2022/06/21 11:02:59;;;;;;;5.95;3.38;;;21.40;70.20;;;;;;5054824;28;20154;-66
2022/06/21 11:05:38;;;;;;;4.07;2.30;;;21.40;68.90;;;;;;5053078;28;20125;-62
2022/06/21 11:08:05;;;;;;;5.43;2.00;;;21.40;70.80;;;;;;5055164;28;20047;-67
2022/06/21 11:10:37;;;;;;;6.68;2.83;;;21.50;71.90;;;;;;5054078;28;20052;-62
2022/06/21 11:13:05;;;;;;;7.28;3.53;;;21.50;71.90;;;;;;5055112;28;20041;-63
2022/06/21 11:16:02;;;;;;;7.22;2.45;;;21.50;75.20;;;;;;5036622;28;20055;-62
2022/06/21 11:18:51;;;;;;;5.80;2.00;;;21.50;69.60;;;;;;5054106;28;20392;-62
2022/06/21 11:21:40;;;;;;;4.20;2.22;;;21.50;65.10;;;;;;5054161;28;20040;-62
2022/06/21 11:24:23;;;;;;;5.50;2.65;;;21.60;65.40;;;;;;5054199;28;20041;-76
2022/06/21 11:27:02;;;;;;;3.58;2.00;;;21.70;65.30;;;;;;5052675;28;20044;-70
2022/06/21 11:29:38;;;;;;;4.32;2.15;;;21.60;66.20;;;;;;5054118;28;20048;-71
2022/06/21 11:32:27;;;;;;;5.38;2.28;;;21.60;69.00;;;;;;5053733;28;20047;-67
2022/06/21 11:35:13;;;;;;;4.40;1.80;;;21.80;66.30;;;;;;5053151;28;20041;-73
2022/06/21 11:38:19;;;;;;;3.17;1.92;;;21.90;64.70;;;;;;5054561;28;20045;-70
2022/06/21 11:44:32;;;;;;;5.63;2.10;;;22.00;69.90;;;;;;5053523;28;20041;-69
2022/06/21 11:47:23;;;;;;;5.25;2.72;;;22.00;68.50;;;;;;5053410;28;20433;-66
2022/06/21 11:50:12;;;;;;;5.78;2.25;;;22.10;69.70;;;;;;5036543;28;20049;-67
2022/06/21 11:52:51;;;;;;;7.68;2.38;;;22.20;71.10;;;;;;5052626;28;20045;-65
2022/06/21 11:55:48;;;;;;;5.30;3.47;;;22.30;71.50;;;;;;5053229;28;20170;-65
2022/06/21 11:58:25;;;;;;;5.15;2.40;;;22.60;71.10;;;;;;5052200;28;20083;-66
2022/06/21 12:00:57;;;;;;;9.30;2.70;;;22.80;73.50;;;;;;5053770;28;20049;-66
2022/06/21 12:03:46;;;;;;;4.75;2.20;;;23.10;70.20;;;;;;5054108;28;20063;-66
2022/06/21 12:06:39;;;;;;;7.03;5.03;;;23.20;68.70;;;;;;5051379;28;20068;-67
2022/06/21 12:09:23;;;;;;;6.97;3.10;;;23.50;70.00;;;;;;5054392;28;20426;-63
2022/06/21 12:12:09;;;;;;;4.47;2.13;;;23.70;66.60;;;;;;5053173;28;20037;-63
2022/06/21 12:14:55;;;;;;;6.10;2.30;;;23.70;69.00;;;;;;5053483;28;20045;-72
2022/06/21 12:17:44;;;;;;;5.93;2.75;;;23.90;67.40;;;;;;5052013;28;20051;-72
2022/06/21 12:20:26;;;;;;;5.43;2.83;;;24.00;68.00;;;;;;5054166;28;20041;-73
2022/06/21 12:23:01;;;;;;;6.57;2.53;;;24.00;68.20;;;;;;5052747;28;20041;-72
2022/06/21 12:25:28;;;;;;;5.43;2.67;;;24.00;67.90;;;;;;5035998;28;20049;-72
2022/06/21 12:27:59;;;;;;;8.48;2.97;;;24.00;71.00;;;;;;5052783;28;20048;-72
2022/06/21 12:30:46;;;;;;;8.63;3.60;;;24.00;68.40;;;;;;5053815;28;20073;-72
2022/06/21 12:33:17;;;;;;;6.93;3.00;;;24.00;69.80;;;;;;5053929;28;20048;-72
2022/06/21 12:35:56;;;;;;;6.20;2.88;;;24.00;67.40;;;;;;5051775;28;20052;-71
2022/06/21 12:38:26;;;;;;;7.35;2.42;;;23.90;66.60;;;;;;5053236;28;20583;-73
2022/06/21 12:41:17;;;;;;;5.53;2.30;;;23.70;66.80;;;;;;5035525;28;20390;-72
2022/06/21 12:43:50;;;;;;;5.53;2.40;;;23.70;67.70;;;;;;5052489;28;20044;-72
2022/06/21 12:46:30;;;;;;;6.88;2.88;;;23.90;68.70;;;;;;5052248;28;20084;-72
2022/06/21 12:49:12;;;;;;;8.32;2.45;;;23.90;68.40;;;;;;5052625;28;20041;-71
2022/06/21 12:52:05;;;;;;;10.02;3.35;;;23.90;68.70;;;;;;5053625;28;20041;-71
2022/06/21 12:54:51;;;;;;;8.05;3.38;;;23.90;70.00;;;;;;5052533;28;20052;-72
2022/06/21 12:57:24;;;;;;;9.98;6.10;;;24.00;69.60;;;;;;5052545;28;20040;-69
2022/06/21 13:00:24;;;;;;;13.25;6.95;;;23.90;68.90;;;;;;5053498;28;20045;-68
2022/06/21 13:03:32;;;;;;;10.93;3.58;;;23.90;69.20;;;;;;5048994;28;20045;-72
2022/06/21 13:06:20;;;;;;;6.50;2.70;;;24.10;68.30;;;;;;5046072;28;20041;-71
2022/06/21 13:08:59;;;;;;;7.22;3.30;;;24.00;66.80;;;;;;5053650;28;20041;-71
2022/06/21 13:12:03;;;;;;;5.88;3.75;;;23.80;70.80;;;;;;5053619;28;20051;-66
2022/06/21 13:14:58;;;;;;;5.00;2.42;;;23.70;71.00;;;;;;5052793;28;20480;-65
2022/06/21 13:18:03;;;;;;;30.83;27.52;;;23.70;69.70;;;;;;5035859;28;20049;-66
2022/06/21 13:21:00;;;;;;;6.38;3.85;;;23.70;69.20;;;;;;5056732;28;20457;-65
2022/06/21 13:23:39;;;;;;;7.20;3.05;;;23.60;68.10;;;;;;5056193;28;20041;-64
2022/06/21 13:26:19;;;;;;;5.45;2.50;;;23.60;68.80;;;;;;5056550;28;20048;-66
2022/06/21 13:29:08;;;;;;;11.25;6.35;;;23.70;70.20;;;;;;5054972;28;20080;-65
2022/06/21 13:31:47;;;;;;;49.75;44.17;;;23.70;70.10;;;;;;5055083;28;20049;-66
2022/06/21 13:34:33;;;;;;;7.55;5.45;;;23.70;70.10;;;;;;5073484;28;20049;-68
2022/06/21 13:37:17;;;;;;;5.30;3.10;;;23.70;68.60;;;;;;5055701;28;20041;-67
2022/06/21 13:40:08;;;;;;;6.25;2.40;;;23.50;68.50;;;;;;5054819;28;20048;-70
2022/06/21 13:42:41;;;;;;;5.57;2.08;;;23.50;69.40;;;;;;5054703;28;20088;-70
2022/06/21 13:45:36;;;;;;;5.18;2.47;;;23.50;69.60;;;;;;5055387;28;20083;-69
2022/06/21 13:48:30;;;;;;;5.25;2.00;;;23.50;66.30;;;;;;5056344;28;20044;-72
2022/06/21 13:51:14;;;;;;;4.65;1.98;;;23.20;65.40;;;;;;5055164;28;20048;-67
2022/06/21 13:54:10;;;;;;;6.45;2.30;;;23.20;65.40;;;;;;5055821;28;20124;-63
2022/06/21 13:56:49;;;;;;;8.15;2.65;;;23.20;65.00;;;;;;5055567;28;20049;-63
2022/06/21 13:59:34;;;;;;;;;;;23.20;63.60;;;;;;5055911;28;20052;-61
2022/06/21 14:02:15;;;;;;;5.07;2.00;;;23.20;63.50;;;;;;5056066;28;19917;-63